Time,TemperatureF,DewpointF,PressureIn,WindDirection,WindDirectionDegrees,WindSpeedMPH,WindSpeedGustMPH,Humidity,HourlyPrecipIn,Conditions,Clouds,dailyrainin,SoftwareType,DateUTC
2013-11-26 00:13:00,34.5,31.0,30.31,ENE,77,0.0,7.0,88,0.00,,,0.08,weatherlink.com 1.10,2013-11-26 07:13:00,
2013-11-26 00:28:00,34.5,31.0,30.31,ENE,77,2.0,7.0,88,0.00,,,0.08,weatherlink.com 1.10,2013-11-26 07:28:00,
2013-11-26 00:43:00,34.4,31.0,30.31,ENE,70,3.0,7.0,88,0.00,,,0.08,weatherlink.com 1.10,2013-11-26 07:43:00,
2013-11-26 00:58:00,34.6,31.0,30.31,ENE,62,5.0,8.0,87,0.00,,,0.00,weatherlink.com 1.10,2013-11-26 07:58:00,
2013-11-26 01:13:00,34.6,31.0,30.31,ENE,62,2.0,5.0,87,0.00,,,0.00,weatherlink.com 1.10,2013-11-26 08:13:00,
2013-11-26 01:28:00,34.6,31.0,30.31,ENE,60,3.0,8.0,86,0.00,,,0.00,weatherlink.com 1.10,2013-11-26 08:28:00,
2013-11-26 01:43:00,34.4,30.0,30.31,NE,45,3.0,7.0,85,0.00,,,0.00,weatherlink.com 1.10,2013-11-26 08:43:00,
2013-11-26 01:58:00,33.6,30.0,30.31,NE,39,7.0,7.0,85,0.00,,,0.00,weatherlink.com 1.10,2013-11-26 08:58:00,
2013-11-26 02:13:00,32.7,29.0,30.31,NE,40,4.0,6.0,86,0.00,,,0.00,weatherlink.com 1.10,2013-11-26 09:13:00,
2013-11-26 02:28:00,32.2,29.0,30.31,NE,35,5.0,7.0,87,0.00,,,0.00,weatherlink.com 1.10,2013-11-26 09:28:00,
2013-11-26 02:43:00,31.9,29.0,30.31,NE,35,3.0,6.0,87,0.00,,,0.00,weatherlink.com 1.10,2013-11-26 09:43:00,
2013-11-26 02:58:00,31.5,28.0,30.32,NE,35,0.0,7.0,87,0.00,,,0.00,weatherlink.com 1.10,2013-11-26 09:58:00,
2013-11-26 03:13:00,31.4,28.0,30.32,NNE,33,1.0,6.0,87,0.00,,,0.00,weatherlink.com 1.10,2013-11-26 10:13:00,
2013-11-26 03:28:00,31.0,28.0,30.32,NNE,33,0.0,4.0,87,0.00,,,0.00,weatherlink.com 1.10,2013-11-26 10:28:00,
2013-11-26 03:43:00,30.8,27.0,30.32,NNE,33,3.0,4.0,87,0.00,,,0.00,weatherlink.com 1.10,2013-11-26 10:43:00,
2013-11-26 03:58:00,30.7,27.0,30.32,NNE,33,0.0,5.0,87,0.00,,,0.00,weatherlink.com 1.10,2013-11-26 10:58:00,
2013-11-26 04:13:00,30.5,27.0,30.32,NNE,33,0.0,6.0,86,0.00,,,0.00,weatherlink.com 1.10,2013-11-26 11:13:00,
2013-11-26 04:28:00,30.2,27.0,30.33,NNE,33,0.0,5.0,86,0.00,,,0.00,weatherlink.com 1.10,2013-11-26 11:28:00,
2013-11-26 04:44:00,29.7,26.0,30.33,NNE,33,5.0,5.0,86,0.00,,,0.00,weatherlink.com 1.10,2013-11-26 11:44:00,
2013-11-26 04:59:00,29.2,26.0,30.33,NNE,33,2.0,6.0,87,0.00,,,0.00,weatherlink.com 1.10,2013-11-26 11:59:00,
2013-11-26 05:14:00,29.0,26.0,30.33,NNE,33,7.0,8.0,87,0.00,,,0.00,weatherlink.com 1.10,2013-11-26 12:14:00,
2013-11-26 05:29:00,29.0,26.0,30.34,NNE,33,0.0,5.0,87,0.00,,,0.00,weatherlink.com 1.10,2013-11-26 12:29:00,
2013-11-26 05:44:00,29.2,26.0,30.34,NNE,32,0.0,0.0,87,0.00,,,0.00,weatherlink.com 1.10,2013-11-26 12:44:00,
2013-11-26 05:59:00,29.4,26.0,30.35,NNE,33,0.0,0.0,86,0.00,,,0.00,weatherlink.com 1.10,2013-11-26 12:59:00,
2013-11-26 06:14:00,29.4,26.0,30.36,NNE,32,0.0,0.0,85,0.00,,,0.00,weatherlink.com 1.10,2013-11-26 13:14:00,
2013-11-26 06:29:00,29.3,25.0,30.37,NNE,33,0.0,0.0,85,0.00,,,0.00,weatherlink.com 1.10,2013-11-26 13:29:00,
2013-11-26 06:44:00,29.2,26.0,30.38,NNE,33,0.0,0.0,86,0.00,,,0.00,weatherlink.com 1.10,2013-11-26 13:44:00,
2013-11-26 06:59:00,29.4,26.0,30.38,NNE,33,0.0,0.0,85,0.00,,,0.00,weatherlink.com 1.10,2013-11-26 13:59:00,
2013-11-26 07:14:00,30.3,26.0,30.39,NNE,33,0.0,0.0,84,0.00,,,0.00,weatherlink.com 1.10,2013-11-26 14:14:00,
2013-11-26 07:29:00,31.6,27.0,30.39,NNE,33,0.0,7.0,83,0.01,,,0.01,weatherlink.com 1.10,2013-11-26 14:29:00,
2013-11-26 07:44:00,32.7,28.0,30.39,NNE,31,7.0,8.0,81,0.01,,,0.01,weatherlink.com 1.10,2013-11-26 14:44:00,
2013-11-26 07:59:00,33.7,28.0,30.40,NNE,21,0.0,8.0,80,0.01,,,0.01,weatherlink.com 1.10,2013-11-26 14:59:00,
2013-11-26 08:14:00,35.1,29.0,30.41,NNE,20,1.0,6.0,77,0.01,,,0.01,weatherlink.com 1.10,2013-11-26 15:14:00,
2013-11-26 08:29:00,35.8,29.0,30.41,North,8,1.0,10.0,76,0.00,,,0.01,weatherlink.com 1.10,2013-11-26 15:29:00,
2013-11-26 08:44:00,36.8,29.0,30.42,NNW,335,6.0,11.0,74,0.00,,,0.01,weatherlink.com 1.10,2013-11-26 15:44:00,
2013-11-26 08:59:00,37.9,30.0,30.42,NNW,332,5.0,10.0,73,0.00,,,0.01,weatherlink.com 1.10,2013-11-26 15:59:00,
2013-11-26 09:14:00,38.9,31.0,30.42,NNW,328,1.0,11.0,73,0.01,,,0.02,weatherlink.com 1.10,2013-11-26 16:14:00,
2013-11-26 09:29:00,40.0,30.0,30.43,NNW,342,6.0,12.0,68,0.02,,,0.03,weatherlink.com 1.10,2013-11-26 16:29:00,
2013-11-26 09:44:00,40.6,29.0,30.43,NNW,348,8.0,14.0,64,0.02,,,0.03,weatherlink.com 1.10,2013-11-26 16:44:00,
2013-11-26 09:59:00,40.9,30.0,30.43,North,359,14.0,14.0,65,0.03,,,0.04,weatherlink.com 1.10,2013-11-26 16:59:00,
2013-11-26 10:14:00,42.0,30.0,30.43,North,8,8.0,15.0,62,0.03,,,0.05,weatherlink.com 1.10,2013-11-26 17:14:00,
2013-11-26 10:29:00,42.3,28.0,30.43,North,354,11.0,15.0,58,0.02,,,0.05,weatherlink.com 1.10,2013-11-26 17:29:00,
2013-11-26 11:15:00,43.6,29.0,30.42,North,4,6.0,20.0,56,0.02,,,0.07,weatherlink.com 1.10,2013-11-26 18:15:00,
2013-11-26 11:30:00,43.8,29.0,30.41,NNW,335,7.0,16.0,56,0.02,,,0.07,weatherlink.com 1.10,2013-11-26 18:30:00,
2013-11-26 11:45:00,44.4,30.0,30.41,North,359,8.0,16.0,57,0.01,,,0.07,weatherlink.com 1.10,2013-11-26 18:45:00,
2013-11-26 12:00:00,44.5,30.0,30.41,NNW,336,7.0,14.0,57,0.02,,,0.08,weatherlink.com 1.10,2013-11-26 19:00:00,
2013-11-26 12:15:00,44.9,29.0,30.41,NNW,347,11.0,17.0,53,0.01,,,0.08,weatherlink.com 1.10,2013-11-26 19:15:00,
2013-11-26 12:30:00,45.3,29.0,30.41,NW,323,12.0,16.0,54,0.02,,,0.09,weatherlink.com 1.10,2013-11-26 19:30:00,
2013-11-26 12:45:00,45.8,30.0,30.40,NNW,333,5.0,14.0,54,0.02,,,0.09,weatherlink.com 1.10,2013-11-26 19:45:00,
2013-11-26 13:00:00,46.1,29.0,30.40,NNW,328,6.0,15.0,51,0.01,,,0.09,weatherlink.com 1.10,2013-11-26 20:00:00,
2013-11-26 13:15:00,46.5,30.0,30.40,North,354,6.0,18.0,52,0.01,,,0.09,weatherlink.com 1.10,2013-11-26 20:15:00,
2013-11-26 13:30:00,46.5,30.0,30.40,NNW,335,6.0,15.0,52,0.01,,,0.10,weatherlink.com 1.10,2013-11-26 20:30:00,
2013-11-26 13:45:00,46.8,29.0,30.39,NNW,327,9.0,16.0,51,0.01,,,0.10,weatherlink.com 1.10,2013-11-26 20:45:00,
2013-11-26 14:00:00,46.8,29.0,30.39,WNW,303,14.0,18.0,51,0.01,,,0.10,weatherlink.com 1.10,2013-11-26 21:00:00,
2013-11-26 14:15:00,47.3,29.0,30.39,NW,313,8.0,15.0,50,0.01,,,0.10,weatherlink.com 1.10,2013-11-26 21:15:00,
2013-11-26 14:30:00,47.4,30.0,30.39,NW,326,7.0,14.0,51,0.00,,,0.10,weatherlink.com 1.10,2013-11-26 21:30:00,
2013-11-26 14:45:00,47.3,30.0,30.39,NW,312,7.0,16.0,51,0.00,,,0.10,weatherlink.com 1.10,2013-11-26 21:45:00,
2013-11-26 15:00:00,47.6,30.0,30.39,NNW,330,13.0,14.0,51,0.01,,,0.11,weatherlink.com 1.10,2013-11-26 22:00:00,
2013-11-26 15:15:00,47.8,30.0,30.39,NW,320,5.0,14.0,50,0.01,,,0.11,weatherlink.com 1.10,2013-11-26 22:15:00,
2013-11-26 15:30:00,47.7,30.0,30.39,NNW,328,6.0,15.0,50,0.01,,,0.11,weatherlink.com 1.10,2013-11-26 22:30:00,
2013-11-26 15:45:00,47.5,31.0,30.40,NW,310,7.0,12.0,53,0.01,,,0.11,weatherlink.com 1.10,2013-11-26 22:45:00,
2013-11-26 16:00:00,47.0,31.0,30.40,NW,313,6.0,10.0,54,0.00,,,0.11,weatherlink.com 1.10,2013-11-26 23:00:00,
2013-11-26 16:15:00,46.0,32.0,30.40,NW,318,3.0,7.0,58,0.00,,,0.11,weatherlink.com 1.10,2013-11-26 23:15:00,
2013-11-26 16:30:00,44.5,32.0,30.40,NW,321,0.0,6.0,63,0.00,,,0.11,weatherlink.com 1.10,2013-11-26 23:30:00,
2013-11-26 16:45:00,43.7,31.0,30.40,NNW,329,5.0,8.0,61,0.00,,,0.11,weatherlink.com 1.10,2013-11-26 23:45:00,
2013-11-26 17:00:00,42.7,30.0,30.41,NNW,334,6.0,7.0,60,0.00,,,0.11,weatherlink.com 1.10,2013-11-27 00:00:00,
2013-11-26 17:15:00,41.6,28.0,30.41,NNW,335,5.0,7.0,60,0.00,,,0.11,weatherlink.com 1.10,2013-11-27 00:15:00,
2013-11-26 17:30:00,41.5,28.0,30.42,North,349,8.0,8.0,58,0.00,,,0.11,weatherlink.com 1.10,2013-11-27 00:30:00,
2013-11-26 17:45:00,41.5,27.0,30.43,North,350,7.0,10.0,56,0.00,,,0.11,weatherlink.com 1.10,2013-11-27 00:45:00,
2013-11-26 18:00:00,40.5,27.0,30.43,NNW,344,6.0,8.0,59,0.00,,,0.11,weatherlink.com 1.10,2013-11-27 01:00:00,
2013-11-26 18:15:00,39.7,27.0,30.43,North,354,7.0,10.0,60,0.00,,,0.11,weatherlink.com 1.10,2013-11-27 01:15:00,
2013-11-26 18:30:00,39.2,27.0,30.44,North,350,7.0,10.0,62,0.00,,,0.11,weatherlink.com 1.10,2013-11-27 01:30:00,
2013-11-26 18:45:00,39.1,27.0,30.44,North,359,7.0,10.0,62,0.00,,,0.11,weatherlink.com 1.10,2013-11-27 01:45:00,
2013-11-26 19:00:00,38.5,27.0,30.45,North,4,4.0,10.0,63,0.00,,,0.11,weatherlink.com 1.10,2013-11-27 02:00:00,
2013-11-26 19:15:00,37.9,27.0,30.45,North,359,5.0,8.0,64,0.00,,,0.11,weatherlink.com 1.10,2013-11-27 02:15:00,
2013-11-26 19:30:00,37.7,26.0,30.46,NNE,12,8.0,11.0,64,0.00,,,0.11,weatherlink.com 1.10,2013-11-27 02:30:00,
2013-11-26 19:45:00,38.2,26.0,30.46,North,349,5.0,11.0,63,0.00,,,0.11,weatherlink.com 1.10,2013-11-27 02:45:00,
2013-11-26 20:00:00,37.1,26.0,30.46,NNE,14,6.0,10.0,65,0.00,,,0.11,weatherlink.com 1.10,2013-11-27 03:00:00,
2013-11-26 20:15:00,36.4,26.0,30.47,NNE,15,5.0,8.0,67,0.00,,,0.11,weatherlink.com 1.10,2013-11-27 03:15:00,
2013-11-26 20:30:00,35.5,26.0,30.47,NNE,14,3.0,7.0,69,0.00,,,0.11,weatherlink.com 1.10,2013-11-27 03:30:00,
2013-11-26 20:45:00,35.0,26.0,30.48,NNE,15,4.0,7.0,70,0.00,,,0.11,weatherlink.com 1.10,2013-11-27 03:45:00,
2013-11-26 21:00:00,34.7,26.0,30.48,NNE,17,4.0,7.0,71,0.00,,,0.11,weatherlink.com 1.10,2013-11-27 04:00:00,
2013-11-26 21:15:00,34.6,26.0,30.49,NNE,25,6.0,10.0,71,0.00,,,0.11,weatherlink.com 1.10,2013-11-27 04:15:00,
2013-11-26 21:30:00,34.5,26.0,30.49,NNE,17,6.0,9.0,71,0.00,,,0.11,weatherlink.com 1.10,2013-11-27 04:30:00,
2013-11-26 21:45:00,33.9,26.0,30.50,NNE,17,4.0,7.0,72,0.00,,,0.11,weatherlink.com 1.10,2013-11-27 04:45:00,
2013-11-26 22:00:00,32.8,26.0,30.50,NNE,17,4.0,6.0,75,0.00,,,0.11,weatherlink.com 1.10,2013-11-27 05:00:00,
2013-11-26 22:15:00,32.6,26.0,30.50,NNE,23,6.0,7.0,75,0.00,,,0.11,weatherlink.com 1.10,2013-11-27 05:15:00,
2013-11-26 22:30:00,32.5,25.0,30.50,NNE,25,5.0,6.0,75,0.00,,,0.11,weatherlink.com 1.10,2013-11-27 05:30:00,
2013-11-26 22:45:00,31.9,25.0,30.50,NNE,25,2.0,5.0,75,0.00,,,0.11,weatherlink.com 1.10,2013-11-27 05:45:00,
2013-11-26 23:00:00,31.7,25.0,30.50,NNE,25,0.0,4.0,76,0.00,,,0.11,weatherlink.com 1.10,2013-11-27 06:00:00,
2013-11-26 23:15:00,31.4,25.0,30.50,NNE,25,1.0,2.0,76,0.00,,,0.11,weatherlink.com 1.10,2013-11-27 06:15:00,
2013-11-26 23:30:00,30.8,25.0,30.51,NNE,25,0.0,2.0,78,0.00,,,0.11,weatherlink.com 1.10,2013-11-27 06:30:00,
2013-11-26 23:45:00,30.3,25.0,30.50,NNE,24,0.0,0.0,79,0.00,,,0.11,weatherlink.com 1.10,2013-11-27 06:45:00,